createdAt,value
2022-11-10T00:00:49.049Z,95565.84
2022-11-10T00:03:15.389Z,95566.58
2022-11-10T00:05:41.748Z,95571.00
2022-11-10T00:08:08.089Z,95564.09
2022-11-10T00:10:34.476Z,95564.00
2022-11-10T00:13:00.837Z,95566.67
2022-11-10T00:15:27.222Z,95556.36
2022-11-10T00:17:53.568Z,95560.69
2022-11-10T00:20:19.948Z,95559.52
2022-11-10T00:22:46.294Z,95562.93
2022-11-10T00:25:12.654Z,95565.84
2022-11-10T00:27:38.987Z,95564.68
2022-11-10T00:30:05.334Z,95568.18
2022-11-10T00:32:31.677Z,95569.47
2022-11-10T00:34:58.038Z,95564.31
2022-11-10T00:37:24.381Z,95568.30
2022-11-10T00:39:50.737Z,95570.30
2022-11-10T00:42:17.085Z,95561.40
2022-11-10T00:44:43.439Z,95563.24
2022-11-10T00:47:09.809Z,95559.74
2022-11-10T00:49:36.182Z,95552.93
2022-11-10T00:52:02.530Z,95556.42
2022-11-10T00:54:28.894Z,95554.80
2022-11-10T00:56:55.231Z,95543.20
2022-11-10T00:59:21.570Z,95548.70
2022-11-10T01:01:47.906Z,95547.07
2022-11-10T01:04:14.253Z,95544.83
2022-11-10T01:06:40.639Z,95544.03
2022-11-10T01:09:06.946Z,95544.48
2022-11-10T01:11:33.287Z,95545.78
2022-11-10T01:14:00.880Z,95543.30
2022-11-10T01:16:25.985Z,95544.25
2022-11-10T01:18:53.285Z,95538.27
2022-11-10T01:21:18.687Z,95539.55
2022-11-10T01:23:45.076Z,95538.72
2022-11-10T01:26:11.411Z,95538.59
2022-11-10T01:28:37.763Z,95535.69
2022-11-10T01:31:04.171Z,95536.61
2022-11-10T01:33:30.551Z,95537.90
2022-11-10T01:35:56.891Z,95534.95
2022-11-10T01:38:23.243Z,95531.91
2022-11-10T01:40:49.592Z,95534.16
2022-11-10T01:43:15.934Z,95533.66
2022-11-10T01:45:42.286Z,95533.33
2022-11-10T01:48:08.636Z,95534.25
2022-11-10T01:50:35.015Z,95529.92
2022-11-10T01:53:01.360Z,95534.71
2022-11-10T01:55:27.699Z,95536.45
2022-11-10T01:57:54.043Z,95533.78
2022-11-10T02:00:20.391Z,95529.28
2022-11-10T02:02:46.737Z,95533.42
2022-11-10T02:05:13.082Z,95533.02
2022-11-10T02:07:39.495Z,95535.17
2022-11-10T02:10:05.836Z,95538.67
2022-11-10T02:12:32.197Z,95531.86
2022-11-10T02:14:58.544Z,95535.36
2022-11-10T02:17:24.885Z,95532.77
2022-11-10T02:19:51.233Z,95537.10
2022-11-10T02:22:17.605Z,95537.93
2022-11-10T02:24:43.958Z,95535.02
2022-11-10T02:27:10.329Z,95538.88
2022-11-10T02:29:36.685Z,95547.08
2022-11-10T02:32:03.036Z,95541.34
2022-11-10T02:34:29.387Z,95547.41
2022-11-10T02:36:55.724Z,95544.95
2022-11-10T02:39:22.076Z,95541.92
2022-11-10T02:41:48.419Z,95553.39
2022-11-10T02:44:14.770Z,95550.48
2022-11-10T02:46:41.110Z,95553.77
2022-11-10T02:49:07.467Z,95550.36
2022-11-10T02:51:33.809Z,95555.05
2022-11-10T02:54:00.173Z,95555.05
2022-11-10T02:56:26.516Z,95555.14
2022-11-10T02:58:54.134Z,95554.34
2022-11-10T03:01:19.252Z,95559.59
2022-11-10T03:03:45.624Z,95556.55
2022-11-10T03:06:11.963Z,95561.80
2022-11-10T03:08:39.275Z,95564.05
2022-11-10T03:11:04.664Z,95564.59
2022-11-10T03:13:45.231Z,95563.89
2022-11-10T03:15:57.414Z,95561.77
2022-11-10T03:18:23.762Z,95561.52
2022-11-10T03:20:50.117Z,95564.93
2022-11-10T03:23:16.460Z,95564.81
2022-11-10T03:25:42.842Z,95564.81
2022-11-10T03:28:09.187Z,95566.22
2022-11-10T03:30:35.528Z,95568.42
2022-11-10T03:33:01.869Z,95566.68
2022-11-10T03:35:28.217Z,95569.26
2022-11-10T03:37:54.564Z,95570.91
2022-11-10T03:40:20.928Z,95573.21
2022-11-10T03:42:47.276Z,95576.25
2022-11-10T03:45:13.623Z,95571.00
2022-11-10T03:47:39.964Z,95569.02
2022-11-10T03:50:06.310Z,95573.33
2022-11-10T03:52:32.656Z,95575.08
2022-11-10T03:55:03.090Z,95581.06
2022-11-10T03:57:25.356Z,95582.69
2022-11-10T03:59:51.695Z,95577.66
2022-11-10T04:02:18.071Z,95578.58
2022-11-10T04:04:44.412Z,95581.52
2022-11-10T04:07:10.795Z,95587.14
2022-11-10T04:09:37.103Z,95580.70
2022-11-10T04:12:03.452Z,95582.56
2022-11-10T04:14:29.790Z,95584.68
2022-11-10T04:16:56.139Z,95581.28
2022-11-10T04:19:22.479Z,95583.94
2022-11-10T04:21:48.834Z,95581.28
2022-11-10T04:24:15.208Z,95585.69
2022-11-10T04:26:41.575Z,95586.52
2022-11-10T04:29:07.929Z,95590.75
2022-11-10T04:34:00.425Z,95588.73
2022-11-10T04:36:26.761Z,95596.45
2022-11-10T04:41:19.280Z,95598.58
2022-11-10T04:43:45.650Z,95598.70
2022-11-10T04:46:12.002Z,95600.32
2022-11-10T04:48:38.349Z,95593.42
2022-11-10T04:51:04.729Z,95594.70
2022-11-10T04:53:31.075Z,95596.45
2022-11-10T04:55:57.427Z,95595.66
2022-11-10T04:58:23.771Z,95598.48
2022-11-10T05:00:50.171Z,95599.03
2022-11-10T05:05:42.624Z,95602.90
2022-11-10T05:08:08.957Z,95604.19
2022-11-10T05:10:35.324Z,95599.61
2022-11-10T05:13:01.644Z,95601.73
2022-11-10T05:15:27.993Z,95605.14
2022-11-10T05:17:54.336Z,95606.77
2022-11-10T05:20:20.686Z,95602.65
2022-11-10T05:22:49.101Z,95609.34
2022-11-10T05:25:13.379Z,95614.16
2022-11-10T05:27:39.727Z,95612.75
2022-11-10T05:30:06.093Z,95615.23
2022-11-10T05:32:33.917Z,95617.07
2022-11-10T05:34:58.824Z,95620.76
2022-11-10T05:37:25.167Z,95619.92
2022-11-10T05:39:51.516Z,95622.30
2022-11-10T05:42:17.939Z,95629.20
2022-11-10T05:44:44.286Z,95624.30
2022-11-10T05:47:10.629Z,95630.64
2022-11-10T05:49:37.029Z,95630.19
2022-11-10T05:52:03.366Z,95628.41
2022-11-10T05:54:29.710Z,95633.97
2022-11-10T05:56:56.059Z,95632.22
2022-11-10T05:59:22.405Z,95637.90
2022-11-10T06:01:48.752Z,95637.41
2022-11-10T06:04:15.105Z,95638.55
2022-11-10T06:06:41.500Z,95642.08
2022-11-10T06:09:07.797Z,95640.58
2022-11-10T06:11:34.146Z,95642.55
2022-11-10T06:14:00.502Z,95647.64
2022-11-10T06:16:26.875Z,95644.97
2022-11-10T06:18:53.225Z,95644.64
2022-11-10T06:21:19.573Z,95644.70
2022-11-10T06:23:45.916Z,95652.83
2022-11-10T06:26:12.290Z,95658.73
2022-11-10T06:28:38.633Z,95659.67
2022-11-10T06:31:04.977Z,95664.37
2022-11-10T06:33:31.354Z,95672.14
2022-11-10T06:35:57.688Z,95675.67
2022-11-10T06:38:24.049Z,95680.37
2022-11-10T06:40:50.398Z,95685.56
2022-11-10T06:43:16.743Z,95691.00
2022-11-10T06:45:43.100Z,95691.67
2022-11-10T06:48:09.454Z,95695.30
2022-11-10T06:50:35.802Z,95700.21
2022-11-10T06:53:03.464Z,95701.04
2022-11-10T06:55:29.733Z,95701.81
2022-11-10T06:57:54.870Z,95706.36
2022-11-10T07:00:21.200Z,95710.77
2022-11-10T07:02:47.559Z,95710.77
2022-11-10T07:05:13.926Z,95708.18
2022-11-10T07:07:40.263Z,95710.69
2022-11-10T07:10:07.435Z,95712.20
2022-11-10T07:12:32.961Z,95709.03
2022-11-10T07:14:59.301Z,95709.03
2022-11-10T07:17:25.654Z,95713.10
2022-11-10T07:19:51.991Z,95712.49
2022-11-10T07:22:18.338Z,95713.30
2022-11-10T07:24:44.906Z,95713.83
2022-11-10T07:27:11.255Z,95718.99
2022-11-10T07:29:37.604Z,95718.99
2022-11-10T07:32:03.956Z,95720.58
2022-11-10T07:34:30.295Z,95722.42
2022-11-10T07:36:56.644Z,95720.21
2022-11-10T07:39:23.009Z,95719.77
2022-11-10T07:41:52.463Z,95719.77
2022-11-10T07:44:15.706Z,95714.84
2022-11-10T07:46:42.061Z,95714.84
2022-11-10T07:49:10.056Z,95700.48
2022-11-10T07:51:34.791Z,95718.72
2022-11-10T07:54:01.136Z,95718.72
2022-11-10T07:56:27.501Z,95714.22
2022-11-10T07:58:53.857Z,95714.13
2022-11-10T08:01:20.271Z,95714.13
2022-11-10T08:03:46.544Z,95694.80
2022-11-10T08:06:12.942Z,95717.04
2022-11-10T08:08:39.249Z,95709.59
2022-11-10T08:11:05.604Z,95709.20
2022-11-10T08:13:31.958Z,95714.15
2022-11-10T08:15:58.301Z,95706.83
2022-11-10T08:18:24.643Z,95706.83
2022-11-10T08:20:50.990Z,95715.42
2022-11-10T08:23:17.327Z,95712.59
2022-11-10T08:25:43.665Z,95709.73
2022-11-10T08:28:10.012Z,95714.20
2022-11-10T08:30:36.353Z,95719.36
2022-11-10T08:33:02.735Z,95714.88
2022-11-10T08:35:29.088Z,95714.88
2022-11-10T08:37:55.421Z,95718.51
2022-11-10T08:40:21.793Z,95725.42
2022-11-10T08:42:48.129Z,95726.13
2022-11-10T08:45:14.626Z,95724.96
2022-11-10T08:47:40.926Z,95717.83
2022-11-10T08:50:07.331Z,95721.94
2022-11-10T08:52:33.673Z,95721.19
2022-11-10T08:55:00.022Z,95708.67
2022-11-10T08:57:26.374Z,95708.67
2022-11-10T08:59:52.756Z,95726.84
2022-11-10T09:02:19.101Z,95725.67
2022-11-10T09:04:45.500Z,95705.70
2022-11-10T09:07:11.851Z,95728.08
2022-11-10T09:09:39.844Z,95717.70
2022-11-10T09:12:04.516Z,95717.70
2022-11-10T09:14:30.864Z,95723.72
2022-11-10T09:16:57.577Z,95723.72
2022-11-10T09:19:24.016Z,95726.80
2022-11-10T09:21:50.279Z,95723.03
2022-11-10T09:24:16.625Z,95723.03
2022-11-10T09:26:42.980Z,95727.19
2022-11-10T09:29:09.329Z,95711.20
2022-11-10T09:31:35.675Z,95711.20
2022-11-10T09:34:02.022Z,95718.50
2022-11-10T09:36:28.362Z,95713.47
2022-11-10T09:38:54.705Z,95716.83
2022-11-10T09:41:21.055Z,95709.45
2022-11-10T09:43:47.396Z,95714.11
2022-11-10T09:46:13.757Z,95710.97
2022-11-10T09:48:40.087Z,95704.53
2022-11-10T09:51:06.459Z,95687.50
2022-11-10T09:53:32.792Z,95702.60
2022-11-10T09:55:59.221Z,95693.41
2022-11-10T09:58:25.558Z,95692.44
2022-11-10T10:00:51.897Z,95692.44
2022-11-10T10:03:18.296Z,95696.55
2022-11-10T10:05:44.660Z,95697.44
2022-11-10T10:08:11.040Z,95696.28
2022-11-10T10:10:37.403Z,95698.64
2022-11-10T10:13:03.808Z,95701.37
2022-11-10T10:15:30.172Z,95673.63
2022-11-10T10:17:56.514Z,95673.63
2022-11-10T10:20:22.863Z,95686.83
2022-11-10T10:22:49.201Z,95674.47
2022-11-10T10:25:15.545Z,95691.17
2022-11-10T10:27:41.897Z,95689.05
2022-11-10T10:30:08.242Z,95685.86
2022-11-10T10:32:34.582Z,95687.47
2022-11-10T10:35:00.945Z,95687.47
2022-11-10T10:37:27.312Z,95682.77
2022-11-10T10:39:53.674Z,95682.58
2022-11-10T10:42:20.023Z,95682.91
2022-11-10T10:44:46.364Z,95683.05
2022-11-10T10:47:12.711Z,95677.88
2022-11-10T10:49:39.061Z,95677.88
2022-11-10T10:52:05.428Z,95670.39
2022-11-10T10:54:31.768Z,95675.48
2022-11-10T10:56:58.117Z,95661.17
2022-11-10T10:59:24.453Z,95661.17
2022-11-10T11:01:50.824Z,95662.07
2022-11-10T11:04:17.250Z,95662.07
2022-11-10T11:06:43.638Z,95657.97
2022-11-10T11:09:09.948Z,95647.03
2022-11-10T11:11:36.324Z,95651.71
2022-11-10T11:14:02.686Z,95651.71
2022-11-10T11:16:29.026Z,95638.89
2022-11-10T11:18:55.380Z,95648.39
2022-11-10T11:21:21.744Z,95632.75
2022-11-10T11:23:48.081Z,95632.75
2022-11-10T11:26:14.455Z,95639.25
2022-11-10T11:28:40.891Z,95636.77
2022-11-10T11:31:07.237Z,95633.72
2022-11-10T11:33:33.588Z,95609.77
2022-11-10T11:35:59.939Z,95609.77
2022-11-10T11:38:26.450Z,95627.85
2022-11-10T11:40:52.640Z,95603.41
2022-11-10T11:43:18.981Z,95614.70
2022-11-10T11:45:45.325Z,95627.85
2022-11-10T11:48:11.672Z,95606.69
2022-11-10T11:50:38.011Z,95623.98
2022-11-10T11:53:04.349Z,95622.92
2022-11-10T11:55:30.692Z,95622.92
2022-11-10T11:57:57.089Z,95620.23
2022-11-10T12:00:23.432Z,95616.22
2022-11-10T12:02:53.005Z,95598.01
2022-11-10T12:05:16.195Z,95623.05
2022-11-10T12:07:42.610Z,95623.05
2022-11-10T12:10:08.962Z,95612.91
2022-11-10T12:12:35.299Z,95623.38
2022-11-10T12:15:01.650Z,95624.08
2022-11-10T12:17:27.985Z,95607.22
2022-11-10T12:19:54.338Z,95607.22
2022-11-10T12:22:20.680Z,95623.61
2022-11-10T12:24:47.029Z,95626.39
2022-11-10T12:27:14.776Z,95623.34
2022-11-10T12:29:39.721Z,95605.69
2022-11-10T12:32:06.103Z,95605.69
2022-11-10T12:34:32.470Z,95618.18
2022-11-10T12:36:58.816Z,95610.26
2022-11-10T12:39:25.156Z,95610.26
2022-11-10T12:41:51.560Z,95623.81
2022-11-10T12:44:17.904Z,95621.22
2022-11-10T12:46:48.128Z,95625.36
2022-11-10T12:49:10.626Z,95620.77
2022-11-10T12:51:37.959Z,95628.41
2022-11-10T12:54:03.355Z,95626.36
2022-11-10T12:56:29.701Z,95626.95
2022-11-10T12:58:56.045Z,95626.95
2022-11-10T13:01:22.446Z,95608.97
2022-11-10T13:03:48.731Z,95608.97
2022-11-10T13:06:15.082Z,95630.59
2022-11-10T13:08:41.426Z,95622.25
2022-11-10T13:11:07.774Z,95629.11
2022-11-10T13:13:34.121Z,95629.02
2022-11-10T13:16:00.467Z,95631.23
2022-11-10T13:18:26.808Z,95623.17
2022-11-10T13:20:53.152Z,95627.42
2022-11-10T13:23:19.498Z,95625.56
2022-11-10T13:25:45.846Z,95632.39
2022-11-10T13:28:12.196Z,95635.30
2022-11-10T13:30:38.543Z,95626.25
2022-11-10T13:33:04.882Z,95632.25
2022-11-10T13:35:31.310Z,95618.36
2022-11-10T13:37:57.651Z,95631.28
2022-11-10T13:40:23.994Z,95631.28
2022-11-10T13:42:50.333Z,95644.56
2022-11-10T13:45:16.719Z,95648.08
2022-11-10T13:47:43.054Z,95634.09
2022-11-10T13:50:09.456Z,95646.78
2022-11-10T13:52:35.794Z,95644.89
2022-11-10T13:55:02.216Z,95644.43
2022-11-10T13:57:28.553Z,95635.38
2022-11-10T13:59:54.897Z,95644.89
2022-11-10T14:02:21.261Z,95651.95
2022-11-10T14:04:47.670Z,95635.48
2022-11-10T14:07:13.961Z,95635.48
2022-11-10T14:09:40.320Z,95638.30
2022-11-10T14:12:06.683Z,95638.30
2022-11-10T14:14:33.034Z,95657.71
2022-11-10T14:16:59.379Z,95650.89
2022-11-10T14:19:25.724Z,95640.05
2022-11-10T14:21:57.771Z,95665.32
2022-11-10T14:24:18.437Z,95665.32
2022-11-10T14:26:44.780Z,95660.52
2022-11-10T14:29:11.137Z,95662.38
2022-11-10T14:31:37.485Z,95662.38
2022-11-10T14:34:03.831Z,95640.48
2022-11-10T14:36:30.177Z,95651.20
2022-11-10T14:38:56.514Z,95653.42
2022-11-10T14:41:22.855Z,95653.42
2022-11-10T14:43:49.210Z,95671.08
2022-11-10T14:46:15.554Z,95667.89
2022-11-10T14:48:41.900Z,95651.66
2022-11-10T14:51:08.256Z,95661.44
2022-11-10T14:53:34.597Z,95672.56
2022-11-10T14:56:00.954Z,95666.11
2022-11-10T14:58:27.296Z,95650.95
2022-11-10T15:00:53.656Z,95650.95
2022-11-10T15:06:03.360Z,95674.30
2022-11-10T15:08:28.628Z,95679.47
2022-11-10T15:10:54.981Z,95680.66
2022-11-10T15:13:23.612Z,95683.34
2022-11-10T15:15:47.995Z,95690.75
2022-11-10T15:18:14.337Z,95683.33
2022-11-10T15:20:40.678Z,95700.48
2022-11-10T15:23:07.027Z,95700.48
2022-11-10T15:25:33.380Z,95709.39
2022-11-10T15:27:59.731Z,95712.80
2022-11-10T15:30:26.081Z,95713.61
2022-11-10T15:32:52.434Z,95713.61
2022-11-10T15:35:18.793Z,95715.22
2022-11-10T15:37:45.127Z,95706.98
2022-11-10T15:40:11.611Z,95706.98
2022-11-10T15:42:37.862Z,95719.92
2022-11-10T15:45:04.206Z,95722.14
2022-11-10T15:47:30.566Z,95724.49
2022-11-10T15:49:56.906Z,95720.82
2022-11-10T15:52:23.246Z,95720.82
2022-11-10T15:54:50.805Z,95726.59
2022-11-10T15:57:15.944Z,95731.08
2022-11-10T15:59:42.291Z,95736.24
2022-11-10T16:02:08.638Z,95740.67
2022-11-10T16:04:35.041Z,95731.39
2022-11-10T16:07:01.467Z,95730.71
2022-11-10T16:09:27.737Z,95730.71
2022-11-10T16:11:54.081Z,95741.26
2022-11-10T16:14:20.442Z,95742.55
2022-11-10T16:16:46.769Z,95746.55
2022-11-10T16:19:13.108Z,95744.20
2022-11-10T16:21:39.445Z,95753.34
2022-11-10T16:24:05.789Z,95756.88
2022-11-10T16:26:32.133Z,95757.34
2022-11-10T16:28:58.556Z,95761.20
2022-11-10T16:31:24.898Z,95770.34
2022-11-10T16:33:51.243Z,95766.00
2022-11-10T16:36:17.581Z,95766.83
2022-11-10T16:38:43.932Z,95769.29
2022-11-10T16:41:10.276Z,95770.80
2022-11-10T16:43:36.620Z,95775.04
2022-11-10T16:46:02.965Z,95778.33
2022-11-10T16:48:29.329Z,95776.48
2022-11-10T16:50:55.645Z,95782.47
2022-11-10T16:53:21.992Z,95782.47
2022-11-10T16:55:48.331Z,95782.47
2022-11-10T16:58:14.709Z,95787.73
2022-11-10T17:00:41.052Z,95788.92
2022-11-10T17:03:07.393Z,95792.52
2022-11-10T17:05:35.175Z,95790.89
2022-11-10T17:08:00.308Z,95792.89
2022-11-10T17:10:26.647Z,95798.98
2022-11-10T17:12:52.991Z,95798.64
2022-11-10T17:15:19.334Z,95812.02
2022-11-10T17:17:45.692Z,95817.17
2022-11-10T17:20:12.017Z,95817.64
2022-11-10T17:22:40.983Z,95817.64
2022-11-10T17:25:07.319Z,95799.84
2022-11-10T17:27:37.833Z,95799.84
2022-11-10T17:30:00.008Z,95819.14
2022-11-10T17:32:50.037Z,95807.73
2022-11-10T17:34:52.696Z,95814.19
2022-11-10T17:37:19.062Z,95819.36
2022-11-10T17:39:45.406Z,95825.69
2022-11-10T17:42:11.747Z,95819.91
2022-11-10T17:44:38.091Z,95825.44
2022-11-10T17:47:04.442Z,95816.53
2022-11-10T17:49:30.787Z,95811.37
2022-11-10T17:51:57.127Z,95824.61
2022-11-10T17:54:23.470Z,95822.03
2022-11-10T17:56:49.825Z,95817.20
2022-11-10T17:59:16.163Z,95816.74
2022-11-10T18:01:42.601Z,95821.29
2022-11-10T18:04:08.843Z,95829.16
2022-11-10T18:06:35.204Z,95831.16
2022-11-10T18:09:01.521Z,95834.53
2022-11-10T18:11:27.869Z,95832.99
2022-11-10T18:13:54.214Z,95835.11
2022-11-10T18:16:21.502Z,95836.66
2022-11-10T18:18:46.901Z,95834.75
2022-11-10T18:21:13.239Z,95833.36
2022-11-10T18:23:39.581Z,95836.98
2022-11-10T18:26:05.943Z,95834.41
2022-11-10T18:28:32.278Z,95847.77
2022-11-10T18:30:58.616Z,95852.94
2022-11-10T18:33:25.380Z,95850.81
2022-11-10T18:35:51.448Z,95856.73
2022-11-10T18:38:17.781Z,95852.98
2022-11-10T18:40:44.133Z,95852.98
2022-11-10T18:43:10.474Z,95863.03
2022-11-10T18:45:36.820Z,95854.50
2022-11-10T18:48:04.349Z,95854.50
2022-11-10T18:50:29.503Z,95857.54
2022-11-10T18:52:55.845Z,95857.54
2022-11-10T18:55:22.196Z,95876.14
2022-11-10T18:57:48.537Z,95868.95
2022-11-10T19:00:14.880Z,95871.90
2022-11-10T19:02:41.211Z,95871.90
2022-11-10T19:05:07.624Z,95878.44
2022-11-10T19:07:33.971Z,95880.22
2022-11-10T19:10:00.376Z,95881.39
2022-11-10T19:12:26.939Z,95882.42
2022-11-10T19:14:53.052Z,95885.47
2022-11-10T19:17:19.397Z,95887.80
2022-11-10T19:19:45.746Z,95886.05
2022-11-10T19:22:12.113Z,95886.05
2022-11-10T19:25:00.901Z,95885.77
2022-11-10T19:27:04.804Z,95896.36
2022-11-10T19:29:31.153Z,95903.27
2022-11-10T19:31:57.502Z,95897.03
2022-11-10T19:34:23.894Z,95912.39
2022-11-10T19:36:50.223Z,95903.11
2022-11-10T19:39:16.601Z,95906.89
2022-11-10T19:41:42.952Z,95906.61
2022-11-10T19:44:09.417Z,95908.39
2022-11-10T19:46:35.747Z,95908.94
2022-11-10T19:49:02.099Z,95917.88
2022-11-10T19:51:28.442Z,95917.50
2022-11-10T19:53:54.791Z,95922.20
2022-11-10T19:56:21.141Z,95916.67
2022-11-10T19:58:47.492Z,95910.80
2022-11-10T20:01:13.879Z,95911.27
2022-11-10T20:03:40.181Z,95915.59
2022-11-10T20:06:06.531Z,95919.09
2022-11-10T20:08:35.460Z,95911.84
2022-11-10T20:11:01.806Z,95922.61
2022-11-10T20:13:28.185Z,95923.91
2022-11-10T20:15:54.530Z,95925.28
2022-11-10T20:18:20.900Z,95926.57
2022-11-10T20:20:47.240Z,95930.44
2022-11-10T20:23:13.592Z,95928.32
2022-11-10T20:25:39.942Z,95930.09
2022-11-10T20:28:06.302Z,95932.67
2022-11-10T20:30:32.641Z,95933.59
2022-11-10T20:32:58.995Z,95929.73
2022-11-10T20:35:25.334Z,95934.52
2022-11-10T20:37:52.904Z,95937.47
2022-11-10T20:40:42.750Z,95935.09
2022-11-10T20:42:44.415Z,95934.62
2022-11-10T20:45:10.786Z,95938.01
2022-11-10T20:47:37.212Z,95938.58
2022-11-10T20:50:03.477Z,95942.08
2022-11-10T20:52:29.835Z,95942.08
2022-11-10T20:54:56.180Z,95943.03
2022-11-10T20:57:22.533Z,95943.86
2022-11-10T20:59:48.875Z,95949.94
2022-11-10T21:02:15.231Z,95952.52
2022-11-10T21:04:43.209Z,95957.67
2022-11-10T21:07:07.994Z,95957.76
2022-11-10T21:09:34.267Z,95961.17
2022-11-10T21:12:00.621Z,95961.74
2022-11-10T21:14:26.966Z,95963.03
2022-11-10T21:16:53.310Z,95966.91
2022-11-10T21:19:19.657Z,95970.40
2022-11-10T21:21:46.012Z,95981.17
2022-11-10T21:24:12.361Z,95981.55
2022-11-10T21:26:38.739Z,95978.25
2022-11-10T21:29:05.076Z,95987.28
2022-11-10T21:31:31.435Z,95989.02
2022-11-10T21:33:57.792Z,95989.48
2022-11-10T21:36:24.134Z,95986.53
2022-11-10T21:38:50.476Z,95990.85
2022-11-10T21:41:16.823Z,95984.41
2022-11-10T21:43:43.163Z,95990.05
2022-11-10T21:46:09.545Z,95991.34
2022-11-10T21:48:35.902Z,95997.88
2022-11-10T21:51:02.242Z,95997.88
2022-11-10T21:53:28.588Z,95991.88
2022-11-10T21:55:54.950Z,96000.91
2022-11-10T21:58:21.289Z,95999.99
2022-11-10T22:00:47.636Z,96000.08
2022-11-10T22:03:13.981Z,96001.83
2022-11-10T22:05:40.328Z,96011.34
2022-11-10T22:08:06.673Z,96008.27
2022-11-10T22:10:33.051Z,96011.80
2022-11-10T22:12:59.390Z,96010.05
2022-11-10T22:15:25.737Z,96005.44
2022-11-10T22:17:52.090Z,96002.02
2022-11-10T22:20:18.500Z,96004.60
2022-11-10T22:22:44.841Z,96002.02
2022-11-10T22:25:11.196Z,96000.84
2022-11-10T22:27:37.547Z,96008.13
2022-11-10T22:30:03.905Z,96009.88
2022-11-10T22:32:30.252Z,96010.25
2022-11-10T22:34:56.604Z,96008.59
2022-11-10T22:40:08.235Z,96008.66
2022-11-10T22:42:34.562Z,96012.08
2022-11-10T22:45:00.956Z,96014.31
2022-11-10T22:47:27.295Z,96018.18
2022-11-10T22:49:53.645Z,96013.11
2022-11-10T22:52:20.031Z,96013.94
2022-11-10T22:54:46.382Z,96016.97
2022-11-10T22:57:12.741Z,96020.01
2022-11-10T22:59:39.113Z,96013.56
2022-11-10T23:02:05.457Z,96014.85
2022-11-10T23:04:31.834Z,96015.88
2022-11-10T23:07:00.383Z,96021.87
2022-11-10T23:09:26.678Z,96022.33
2022-11-10T23:11:53.024Z,96024.91
2022-11-10T23:14:19.364Z,96027.11
2022-11-10T23:16:45.720Z,96028.39
2022-11-10T23:19:12.106Z,96039.55
2022-11-10T23:21:38.451Z,96040.00
2022-11-10T23:24:04.790Z,96043.78
2022-11-10T23:26:31.152Z,96037.87
2022-11-10T23:28:57.495Z,96038.82
2022-11-10T23:31:25.120Z,96043.98
2022-11-10T23:33:50.188Z,96047.02
2022-11-10T23:36:17.499Z,96049.22
2022-11-10T23:38:42.880Z,96047.55
2022-11-10T23:41:10.181Z,96049.67
2022-11-10T23:43:35.577Z,96057.86
2022-11-10T23:46:09.023Z,96054.00
2022-11-10T23:48:28.276Z,96058.81
2022-11-10T23:50:54.631Z,96060.55
2022-11-10T23:53:21.200Z,96057.52
2022-11-10T23:55:47.322Z,96054.95
2022-11-10T23:58:13.669Z,96054.95
